sensor_id;sensor_type;location;lat;lon;timestamp;P1;durP1;ratioP1;P2;durP2;ratioP2
33184;SDS011;19550;42.872;25.494;2023-12-07T00:02:15;65.95;;;30.45;;
33184;SDS011;19550;42.872;25.494;2023-12-07T00:04:42;70.40;;;33.17;;
33184;SDS011;19550;42.872;25.494;2023-12-07T00:07:11;75.50;;;35.08;;
33184;SDS011;19550;42.872;25.494;2023-12-07T00:09:39;69.25;;;34.88;;
33184;SDS011;19550;42.872;25.494;2023-12-07T00:12:06;67.57;;;32.22;;
33184;SDS011;19550;42.872;25.494;2023-12-07T00:14:33;69.25;;;32.75;;
33184;SDS011;19550;42.872;25.494;2023-12-07T00:17:00;69.22;;;33.67;;
33184;SDS011;19550;42.872;25.494;2023-12-07T00:19:27;70.40;;;33.10;;
33184;SDS011;19550;42.872;25.494;2023-12-07T00:21:55;67.40;;;31.85;;
33184;SDS011;19550;42.872;25.494;2023-12-07T00:24:23;73.22;;;33.80;;
33184;SDS011;19550;42.872;25.494;2023-12-07T00:26:50;72.47;;;32.63;;
33184;SDS011;19550;42.872;25.494;2023-12-07T00:29:17;72.22;;;32.88;;
33184;SDS011;19550;42.872;25.494;2023-12-07T00:31:44;70.03;;;31.48;;
33184;SDS011;19550;42.872;25.494;2023-12-07T00:34:12;66.40;;;31.67;;
33184;SDS011;19550;42.872;25.494;2023-12-07T00:36:39;70.82;;;31.77;;
33184;SDS011;19550;42.872;25.494;2023-12-07T00:39:07;64.35;;;31.63;;
33184;SDS011;19550;42.872;25.494;2023-12-07T00:41:37;70.65;;;32.75;;
33184;SDS011;19550;42.872;25.494;2023-12-07T00:44:04;71.28;;;32.28;;
33184;SDS011;19550;42.872;25.494;2023-12-07T00:46:31;64.82;;;30.73;;
33184;SDS011;19550;42.872;25.494;2023-12-07T00:48:59;75.03;;;32.90;;
33184;SDS011;19550;42.872;25.494;2023-12-07T00:51:25;70.47;;;32.20;;
33184;SDS011;19550;42.872;25.494;2023-12-07T00:53:52;65.85;;;30.48;;
33184;SDS011;19550;42.872;25.494;2023-12-07T00:56:19;70.25;;;31.35;;
33184;SDS011;19550;42.872;25.494;2023-12-07T00:58:48;63.67;;;29.73;;
33184;SDS011;19550;42.872;25.494;2023-12-07T01:01:15;65.15;;;30.00;;
33184;SDS011;19550;42.872;25.494;2023-12-07T01:03:42;64.28;;;30.80;;
33184;SDS011;19550;42.872;25.494;2023-12-07T01:06:09;66.45;;;30.42;;
33184;SDS011;19550;42.872;25.494;2023-12-07T01:08:36;72.70;;;31.33;;
33184;SDS011;19550;42.872;25.494;2023-12-07T01:11:03;67.57;;;31.08;;
33184;SDS011;19550;42.872;25.494;2023-12-07T01:13:30;65.78;;;31.88;;
33184;SDS011;19550;42.872;25.494;2023-12-07T01:15:59;64.80;;;29.80;;
33184;SDS011;19550;42.872;25.494;2023-12-07T01:18:26;70.32;;;30.75;;
33184;SDS011;19550;42.872;25.494;2023-12-07T01:20:53;68.22;;;30.80;;
33184;SDS011;19550;42.872;25.494;2023-12-07T01:23:20;70.30;;;31.00;;
33184;SDS011;19550;42.872;25.494;2023-12-07T01:25:47;65.30;;;30.48;;
33184;SDS011;19550;42.872;25.494;2023-12-07T01:28:14;70.32;;;32.47;;
33184;SDS011;19550;42.872;25.494;2023-12-07T01:30:41;67.85;;;31.00;;
33184;SDS011;19550;42.872;25.494;2023-12-07T01:33:09;72.45;;;32.13;;
33184;SDS011;19550;42.872;25.494;2023-12-07T01:35:36;63.35;;;29.77;;
33184;SDS011;19550;42.872;25.494;2023-12-07T01:38:03;63.50;;;28.67;;
33184;SDS011;19550;42.872;25.494;2023-12-07T01:40:30;64.18;;;30.13;;
33184;SDS011;19550;42.872;25.494;2023-12-07T01:42:56;59.95;;;29.30;;
33184;SDS011;19550;42.872;25.494;2023-12-07T01:45:23;64.60;;;30.67;;
33184;SDS011;19550;42.872;25.494;2023-12-07T01:47:51;61.70;;;29.02;;
33184;SDS011;19550;42.872;25.494;2023-12-07T01:50:21;62.77;;;29.30;;
33184;SDS011;19550;42.872;25.494;2023-12-07T01:52:49;65.78;;;29.75;;
33184;SDS011;19550;42.872;25.494;2023-12-07T01:55:21;59.60;;;27.58;;
33184;SDS011;19550;42.872;25.494;2023-12-07T01:57:49;59.47;;;27.55;;
33184;SDS011;19550;42.872;25.494;2023-12-07T02:00:16;59.78;;;27.50;;
33184;SDS011;19550;42.872;25.494;2023-12-07T02:02:44;60.45;;;29.10;;
33184;SDS011;19550;42.872;25.494;2023-12-07T02:05:11;59.72;;;27.85;;
33184;SDS011;19550;42.872;25.494;2023-12-07T02:07:41;64.35;;;28.85;;
33184;SDS011;19550;42.872;25.494;2023-12-07T02:10:08;58.22;;;26.70;;
33184;SDS011;19550;42.872;25.494;2023-12-07T02:12:35;56.88;;;26.85;;
33184;SDS011;19550;42.872;25.494;2023-12-07T02:15:02;59.55;;;28.55;;
33184;SDS011;19550;42.872;25.494;2023-12-07T02:17:32;62.30;;;28.20;;
33184;SDS011;19550;42.872;25.494;2023-12-07T02:20:03;62.53;;;28.48;;
33184;SDS011;19550;42.872;25.494;2023-12-07T02:22:38;63.30;;;28.40;;
33184;SDS011;19550;42.872;25.494;2023-12-07T02:25:10;72.25;;;32.45;;
33184;SDS011;19550;42.872;25.494;2023-12-07T02:27:40;76.40;;;34.17;;
33184;SDS011;19550;42.872;25.494;2023-12-07T02:30:09;78.07;;;34.70;;
33184;SDS011;19550;42.872;25.494;2023-12-07T02:32:37;70.35;;;32.85;;
33184;SDS011;19550;42.872;25.494;2023-12-07T02:35:05;75.45;;;33.92;;
33184;SDS011;19550;42.872;25.494;2023-12-07T02:37:34;73.60;;;32.65;;
33184;SDS011;19550;42.872;25.494;2023-12-07T02:40:05;60.75;;;28.77;;
33184;SDS011;19550;42.872;25.494;2023-12-07T02:42:37;60.90;;;29.23;;
33184;SDS011;19550;42.872;25.494;2023-12-07T02:45:10;45.13;;;22.75;;
33184;SDS011;19550;42.872;25.494;2023-12-07T02:47:38;50.25;;;24.85;;
33184;SDS011;19550;42.872;25.494;2023-12-07T02:50:06;42.70;;;22.15;;
33184;SDS011;19550;42.872;25.494;2023-12-07T02:52:36;59.33;;;30.70;;
33184;SDS011;19550;42.872;25.494;2023-12-07T02:59:28;54.85;;;26.65;;
33184;SDS011;19550;42.872;25.494;2023-12-07T03:01:57;56.22;;;26.67;;
33184;SDS011;19550;42.872;25.494;2023-12-07T03:04:27;49.08;;;25.05;;
33184;SDS011;19550;42.872;25.494;2023-12-07T03:06:54;52.17;;;25.67;;
33184;SDS011;19550;42.872;25.494;2023-12-07T03:09:23;47.00;;;23.55;;
33184;SDS011;19550;42.872;25.494;2023-12-07T03:11:56;45.58;;;23.60;;
33184;SDS011;19550;42.872;25.494;2023-12-07T03:14:23;49.65;;;22.90;;
33184;SDS011;19550;42.872;25.494;2023-12-07T03:16:50;47.88;;;24.15;;
33184;SDS011;19550;42.872;25.494;2023-12-07T03:19:19;46.83;;;22.38;;
33184;SDS011;19550;42.872;25.494;2023-12-07T03:21:46;42.17;;;22.45;;
33184;SDS011;19550;42.872;25.494;2023-12-07T03:24:13;50.20;;;23.63;;
33184;SDS011;19550;42.872;25.494;2023-12-07T03:26:40;44.90;;;22.77;;
33184;SDS011;19550;42.872;25.494;2023-12-07T03:29:07;45.47;;;22.17;;
33184;SDS011;19550;42.872;25.494;2023-12-07T03:31:35;46.72;;;22.98;;
33184;SDS011;19550;42.872;25.494;2023-12-07T03:34:07;46.63;;;25.05;;
33184;SDS011;19550;42.872;25.494;2023-12-07T03:36:44;46.63;;;23.25;;
33184;SDS011;19550;42.872;25.494;2023-12-07T03:39:11;44.17;;;23.60;;
33184;SDS011;19550;42.872;25.494;2023-12-07T03:41:39;46.95;;;23.65;;
33184;SDS011;19550;42.872;25.494;2023-12-07T03:44:11;44.42;;;22.77;;
33184;SDS011;19550;42.872;25.494;2023-12-07T03:46:48;46.72;;;22.20;;
33184;SDS011;19550;42.872;25.494;2023-12-07T03:49:16;49.63;;;23.77;;
33184;SDS011;19550;42.872;25.494;2023-12-07T03:51:45;45.28;;;22.58;;
33184;SDS011;19550;42.872;25.494;2023-12-07T03:54:13;46.17;;;22.15;;
33184;SDS011;19550;42.872;25.494;2023-12-07T03:56:40;45.10;;;23.15;;
33184;SDS011;19550;42.872;25.494;2023-12-07T03:59:20;44.42;;;23.60;;
33184;SDS011;19550;42.872;25.494;2023-12-07T04:02:12;43.65;;;23.25;;
33184;SDS011;19550;42.872;25.494;2023-12-07T04:05:29;45.55;;;22.45;;
33184;SDS011;19550;42.872;25.494;2023-12-07T04:08:36;39.78;;;21.23;;
33184;SDS011;19550;42.872;25.494;2023-12-07T04:11:11;37.92;;;20.13;;
33184;SDS011;19550;42.872;25.494;2023-12-07T04:13:52;39.95;;;20.20;;
33184;SDS011;19550;42.872;25.494;2023-12-07T04:16:27;38.83;;;20.83;;
33184;SDS011;19550;42.872;25.494;2023-12-07T04:18:56;42.95;;;21.27;;
33184;SDS011;19550;42.872;25.494;2023-12-07T04:21:27;40.10;;;21.05;;
33184;SDS011;19550;42.872;25.494;2023-12-07T04:23:56;46.90;;;21.80;;
33184;SDS011;19550;42.872;25.494;2023-12-07T04:26:24;40.15;;;21.75;;
33184;SDS011;19550;42.872;25.494;2023-12-07T04:28:52;40.40;;;21.90;;
33184;SDS011;19550;42.872;25.494;2023-12-07T04:31:19;62.15;;;32.88;;
33184;SDS011;19550;42.872;25.494;2023-12-07T04:33:46;49.30;;;26.35;;
33184;SDS011;19550;42.872;25.494;2023-12-07T04:36:13;37.30;;;20.92;;
33184;SDS011;19550;42.872;25.494;2023-12-07T04:38:40;37.60;;;21.30;;
33184;SDS011;19550;42.872;25.494;2023-12-07T04:41:08;32.60;;;19.42;;
33184;SDS011;19550;42.872;25.494;2023-12-07T04:43:35;37.35;;;20.40;;
33184;SDS011;19550;42.872;25.494;2023-12-07T04:46:02;39.25;;;21.05;;
33184;SDS011;19550;42.872;25.494;2023-12-07T04:48:30;39.83;;;22.48;;
33184;SDS011;19550;42.872;25.494;2023-12-07T04:50:57;43.67;;;22.65;;
33184;SDS011;19550;42.872;25.494;2023-12-07T04:53:24;46.35;;;25.05;;
33184;SDS011;19550;42.872;25.494;2023-12-07T04:55:51;48.70;;;25.65;;
33184;SDS011;19550;42.872;25.494;2023-12-07T04:58:19;53.42;;;26.45;;
33184;SDS011;19550;42.872;25.494;2023-12-07T05:00:46;57.33;;;28.15;;
33184;SDS011;19550;42.872;25.494;2023-12-07T05:03:13;53.83;;;27.38;;
33184;SDS011;19550;42.872;25.494;2023-12-07T05:05:39;54.85;;;28.95;;
33184;SDS011;19550;42.872;25.494;2023-12-07T05:08:08;55.22;;;27.70;;
33184;SDS011;19550;42.872;25.494;2023-12-07T05:10:35;54.03;;;26.52;;
33184;SDS011;19550;42.872;25.494;2023-12-07T05:13:01;46.08;;;25.40;;
33184;SDS011;19550;42.872;25.494;2023-12-07T05:15:30;50.03;;;25.80;;
33184;SDS011;19550;42.872;25.494;2023-12-07T05:17:56;56.53;;;27.63;;
33184;SDS011;19550;42.872;25.494;2023-12-07T05:20:23;47.58;;;25.38;;
33184;SDS011;19550;42.872;25.494;2023-12-07T05:22:52;48.22;;;25.40;;
33184;SDS011;19550;42.872;25.494;2023-12-07T05:25:19;29.80;;;16.27;;
33184;SDS011;19550;42.872;25.494;2023-12-07T05:27:46;38.72;;;21.83;;
33184;SDS011;19550;42.872;25.494;2023-12-07T05:30:12;26.05;;;16.08;;
33184;SDS011;19550;42.872;25.494;2023-12-07T05:32:41;32.97;;;17.65;;
33184;SDS011;19550;42.872;25.494;2023-12-07T05:35:08;27.67;;;16.35;;
33184;SDS011;19550;42.872;25.494;2023-12-07T05:37:35;33.10;;;17.85;;
33184;SDS011;19550;42.872;25.494;2023-12-07T05:40:02;32.83;;;18.25;;
33184;SDS011;19550;42.872;25.494;2023-12-07T05:42:30;21.55;;;12.95;;
33184;SDS011;19550;42.872;25.494;2023-12-07T05:44:56;18.27;;;11.32;;
33184;SDS011;19550;42.872;25.494;2023-12-07T05:47:24;34.13;;;18.08;;
33184;SDS011;19550;42.872;25.494;2023-12-07T05:49:53;33.92;;;21.95;;
33184;SDS011;19550;42.872;25.494;2023-12-07T05:52:22;36.83;;;21.25;;
33184;SDS011;19550;42.872;25.494;2023-12-07T05:54:49;38.95;;;21.17;;
33184;SDS011;19550;42.872;25.494;2023-12-07T05:57:16;47.00;;;21.80;;
33184;SDS011;19550;42.872;25.494;2023-12-07T05:59:43;32.17;;;17.38;;
33184;SDS011;19550;42.872;25.494;2023-12-07T06:02:10;21.70;;;12.73;;
33184;SDS011;19550;42.872;25.494;2023-12-07T06:04:37;21.42;;;13.05;;
33184;SDS011;19550;42.872;25.494;2023-12-07T06:07:05;27.30;;;14.27;;
33184;SDS011;19550;42.872;25.494;2023-12-07T06:09:32;28.13;;;17.33;;
33184;SDS011;19550;42.872;25.494;2023-12-07T06:11:59;42.95;;;25.17;;
33184;SDS011;19550;42.872;25.494;2023-12-07T06:14:26;23.25;;;14.32;;
33184;SDS011;19550;42.872;25.494;2023-12-07T06:16:52;30.20;;;19.02;;
33184;SDS011;19550;42.872;25.494;2023-12-07T06:19:20;36.75;;;22.10;;
33184;SDS011;19550;42.872;25.494;2023-12-07T06:21:47;34.30;;;19.42;;
33184;SDS011;19550;42.872;25.494;2023-12-07T06:24:15;27.17;;;16.92;;
33184;SDS011;19550;42.872;25.494;2023-12-07T06:26:42;24.10;;;15.13;;
33184;SDS011;19550;42.872;25.494;2023-12-07T06:29:08;27.83;;;16.77;;
33184;SDS011;19550;42.872;25.494;2023-12-07T06:31:35;30.58;;;17.73;;
33184;SDS011;19550;42.872;25.494;2023-12-07T06:34:02;31.13;;;17.40;;
33184;SDS011;19550;42.872;25.494;2023-12-07T06:36:29;23.80;;;12.98;;
33184;SDS011;19550;42.872;25.494;2023-12-07T06:38:55;23.88;;;14.68;;
33184;SDS011;19550;42.872;25.494;2023-12-07T06:41:24;27.80;;;17.73;;
33184;SDS011;19550;42.872;25.494;2023-12-07T06:43:51;24.80;;;15.02;;
33184;SDS011;19550;42.872;25.494;2023-12-07T06:46:18;25.98;;;15.57;;
33184;SDS011;19550;42.872;25.494;2023-12-07T06:48:45;22.38;;;12.85;;
33184;SDS011;19550;42.872;25.494;2023-12-07T06:51:11;23.38;;;12.88;;
33184;SDS011;19550;42.872;25.494;2023-12-07T06:53:39;31.58;;;19.00;;
33184;SDS011;19550;42.872;25.494;2023-12-07T06:56:07;26.48;;;15.70;;
33184;SDS011;19550;42.872;25.494;2023-12-07T06:58:35;22.50;;;14.82;;
33184;SDS011;19550;42.872;25.494;2023-12-07T07:01:02;26.83;;;14.75;;
33184;SDS011;19550;42.872;25.494;2023-12-07T07:03:29;22.65;;;14.18;;
33184;SDS011;19550;42.872;25.494;2023-12-07T07:05:56;23.23;;;15.18;;
33184;SDS011;19550;42.872;25.494;2023-12-07T07:08:24;29.33;;;20.52;;
33184;SDS011;19550;42.872;25.494;2023-12-07T07:10:51;25.88;;;15.88;;
33184;SDS011;19550;42.872;25.494;2023-12-07T07:13:18;40.05;;;23.83;;
33184;SDS011;19550;42.872;25.494;2023-12-07T07:15:47;37.00;;;24.00;;
33184;SDS011;19550;42.872;25.494;2023-12-07T07:18:14;27.45;;;15.50;;
33184;SDS011;19550;42.872;25.494;2023-12-07T07:20:40;28.85;;;16.35;;
33184;SDS011;19550;42.872;25.494;2023-12-07T07:23:21;27.92;;;16.45;;
33184;SDS011;19550;42.872;25.494;2023-12-07T07:25:48;31.08;;;17.73;;
33184;SDS011;19550;42.872;25.494;2023-12-07T07:28:15;30.58;;;18.52;;
33184;SDS011;19550;42.872;25.494;2023-12-07T07:30:42;29.20;;;15.73;;
33184;SDS011;19550;42.872;25.494;2023-12-07T07:33:10;22.55;;;13.05;;
33184;SDS011;19550;42.872;25.494;2023-12-07T07:35:37;24.90;;;12.60;;
33184;SDS011;19550;42.872;25.494;2023-12-07T07:38:04;25.48;;;16.25;;
33184;SDS011;19550;42.872;25.494;2023-12-07T07:40:31;61.85;;;31.73;;
33184;SDS011;19550;42.872;25.494;2023-12-07T07:42:58;36.05;;;15.88;;
33184;SDS011;19550;42.872;25.494;2023-12-07T07:45:24;13.13;;;7.80;;
33184;SDS011;19550;42.872;25.494;2023-12-07T07:47:51;42.38;;;22.88;;
33184;SDS011;19550;42.872;25.494;2023-12-07T07:50:20;32.65;;;19.25;;
33184;SDS011;19550;42.872;25.494;2023-12-07T07:52:47;20.30;;;12.98;;
33184;SDS011;19550;42.872;25.494;2023-12-07T07:55:14;14.10;;;8.77;;
33184;SDS011;19550;42.872;25.494;2023-12-07T07:57:41;22.20;;;6.45;;
33184;SDS011;19550;42.872;25.494;2023-12-07T08:00:09;13.77;;;7.90;;
33184;SDS011;19550;42.872;25.494;2023-12-07T08:02:38;26.48;;;17.67;;
33184;SDS011;19550;42.872;25.494;2023-12-07T08:05:05;12.20;;;7.15;;
33184;SDS011;19550;42.872;25.494;2023-12-07T08:07:34;34.10;;;21.35;;
33184;SDS011;19550;42.872;25.494;2023-12-07T08:10:00;18.25;;;10.68;;
33184;SDS011;19550;42.872;25.494;2023-12-07T08:12:28;44.33;;;32.15;;
33184;SDS011;19550;42.872;25.494;2023-12-07T08:14:55;77.22;;;59.05;;
33184;SDS011;19550;42.872;25.494;2023-12-07T08:17:22;13.90;;;9.10;;
33184;SDS011;19550;42.872;25.494;2023-12-07T08:19:50;59.75;;;44.40;;
33184;SDS011;19550;42.872;25.494;2023-12-07T08:22:17;18.27;;;13.10;;
33184;SDS011;19550;42.872;25.494;2023-12-07T08:24:45;13.63;;;7.82;;
33184;SDS011;19550;42.872;25.494;2023-12-07T08:27:13;27.70;;;19.30;;
33184;SDS011;19550;42.872;25.494;2023-12-07T08:29:39;31.55;;;23.30;;
33184;SDS011;19550;42.872;25.494;2023-12-07T08:32:06;30.05;;;20.73;;
33184;SDS011;19550;42.872;25.494;2023-12-07T08:34:33;18.30;;;11.00;;
33184;SDS011;19550;42.872;25.494;2023-12-07T08:37:00;18.67;;;10.20;;
33184;SDS011;19550;42.872;25.494;2023-12-07T08:39:28;18.98;;;10.50;;
33184;SDS011;19550;42.872;25.494;2023-12-07T08:41:56;19.60;;;11.55;;
33184;SDS011;19550;42.872;25.494;2023-12-07T08:44:23;33.05;;;22.58;;
33184;SDS011;19550;42.872;25.494;2023-12-07T08:46:50;40.83;;;27.33;;
33184;SDS011;19550;42.872;25.494;2023-12-07T08:49:17;45.40;;;25.38;;
33184;SDS011;19550;42.872;25.494;2023-12-07T08:51:43;58.22;;;22.25;;
33184;SDS011;19550;42.872;25.494;2023-12-07T08:54:10;29.38;;;14.82;;
33184;SDS011;19550;42.872;25.494;2023-12-07T08:56:37;27.88;;;15.20;;
33184;SDS011;19550;42.872;25.494;2023-12-07T08:59:05;26.40;;;14.52;;
33184;SDS011;19550;42.872;25.494;2023-12-07T09:01:32;24.83;;;13.85;;
33184;SDS011;19550;42.872;25.494;2023-12-07T09:03:59;19.38;;;12.10;;
33184;SDS011;19550;42.872;25.494;2023-12-07T09:06:26;27.20;;;15.82;;
33184;SDS011;19550;42.872;25.494;2023-12-07T09:08:53;35.28;;;23.42;;
33184;SDS011;19550;42.872;25.494;2023-12-07T09:11:20;21.77;;;14.98;;
33184;SDS011;19550;42.872;25.494;2023-12-07T09:13:47;17.00;;;10.38;;
33184;SDS011;19550;42.872;25.494;2023-12-07T09:16:15;24.25;;;17.58;;
33184;SDS011;19550;42.872;25.494;2023-12-07T09:18:42;18.60;;;10.95;;
33184;SDS011;19550;42.872;25.494;2023-12-07T09:21:10;20.20;;;12.73;;
33184;SDS011;19550;42.872;25.494;2023-12-07T09:23:37;15.75;;;9.65;;
33184;SDS011;19550;42.872;25.494;2023-12-07T09:26:04;16.83;;;9.93;;
33184;SDS011;19550;42.872;25.494;2023-12-07T09:28:31;20.75;;;12.48;;
33184;SDS011;19550;42.872;25.494;2023-12-07T09:30:58;25.40;;;17.17;;
33184;SDS011;19550;42.872;25.494;2023-12-07T09:33:26;22.02;;;15.73;;
33184;SDS011;19550;42.872;25.494;2023-12-07T09:35:53;19.77;;;14.10;;
33184;SDS011;19550;42.872;25.494;2023-12-07T09:38:20;18.50;;;11.82;;
33184;SDS011;19550;42.872;25.494;2023-12-07T09:40:46;16.70;;;9.65;;
33184;SDS011;19550;42.872;25.494;2023-12-07T09:43:18;14.23;;;8.57;;
33184;SDS011;19550;42.872;25.494;2023-12-07T09:45:45;12.20;;;7.90;;
33184;SDS011;19550;42.872;25.494;2023-12-07T09:48:13;17.20;;;10.25;;
33184;SDS011;19550;42.872;25.494;2023-12-07T09:50:41;17.40;;;11.00;;
33184;SDS011;19550;42.872;25.494;2023-12-07T09:53:08;18.65;;;12.25;;
33184;SDS011;19550;42.872;25.494;2023-12-07T09:55:35;17.30;;;10.02;;
33184;SDS011;19550;42.872;25.494;2023-12-07T09:58:03;17.85;;;11.18;;
33184;SDS011;19550;42.872;25.494;2023-12-07T10:00:30;16.52;;;10.52;;
33184;SDS011;19550;42.872;25.494;2023-12-07T10:02:58;29.08;;;18.88;;
33184;SDS011;19550;42.872;25.494;2023-12-07T10:05:25;13.65;;;8.27;;
33184;SDS011;19550;42.872;25.494;2023-12-07T10:07:53;14.88;;;9.00;;
33184;SDS011;19550;42.872;25.494;2023-12-07T10:10:20;14.23;;;8.23;;
33184;SDS011;19550;42.872;25.494;2023-12-07T10:12:48;14.68;;;8.68;;
33184;SDS011;19550;42.872;25.494;2023-12-07T10:15:18;13.98;;;8.80;;
33184;SDS011;19550;42.872;25.494;2023-12-07T10:17:47;18.52;;;10.45;;
33184;SDS011;19550;42.872;25.494;2023-12-07T10:20:16;12.10;;;6.85;;
33184;SDS011;19550;42.872;25.494;2023-12-07T10:22:44;20.23;;;10.50;;
33184;SDS011;19550;42.872;25.494;2023-12-07T10:25:13;40.38;;;21.00;;
33184;SDS011;19550;42.872;25.494;2023-12-07T10:27:41;23.10;;;13.63;;
33184;SDS011;19550;42.872;25.494;2023-12-07T10:30:09;18.30;;;11.32;;
33184;SDS011;19550;42.872;25.494;2023-12-07T10:32:37;16.42;;;10.20;;
33184;SDS011;19550;42.872;25.494;2023-12-07T10:35:06;25.35;;;14.23;;
33184;SDS011;19550;42.872;25.494;2023-12-07T10:37:34;19.65;;;12.85;;
33184;SDS011;19550;42.872;25.494;2023-12-07T10:40:01;18.92;;;11.27;;
33184;SDS011;19550;42.872;25.494;2023-12-07T10:42:32;15.60;;;9.27;;
33184;SDS011;19550;42.872;25.494;2023-12-07T10:45:03;14.10;;;8.75;;
33184;SDS011;19550;42.872;25.494;2023-12-07T10:47:32;17.38;;;11.75;;
33184;SDS011;19550;42.872;25.494;2023-12-07T10:50:02;13.88;;;8.88;;
33184;SDS011;19550;42.872;25.494;2023-12-07T10:52:36;14.20;;;8.70;;
33184;SDS011;19550;42.872;25.494;2023-12-07T10:55:07;12.63;;;8.02;;
33184;SDS011;19550;42.872;25.494;2023-12-07T10:57:40;14.43;;;8.60;;
33184;SDS011;19550;42.872;25.494;2023-12-07T11:00:09;23.02;;;13.38;;
33184;SDS011;19550;42.872;25.494;2023-12-07T11:02:37;12.38;;;7.75;;
33184;SDS011;19550;42.872;25.494;2023-12-07T11:05:06;13.45;;;8.07;;
33184;SDS011;19550;42.872;25.494;2023-12-07T11:07:38;9.50;;;6.00;;
33184;SDS011;19550;42.872;25.494;2023-12-07T11:10:15;12.02;;;7.68;;
33184;SDS011;19550;42.872;25.494;2023-12-07T11:12:50;10.98;;;7.05;;
33184;SDS011;19550;42.872;25.494;2023-12-07T11:15:34;32.38;;;17.02;;
33184;SDS011;19550;42.872;25.494;2023-12-07T11:18:02;94.28;;;42.90;;
33184;SDS011;19550;42.872;25.494;2023-12-07T11:20:32;39.15;;;24.20;;
33184;SDS011;19550;42.872;25.494;2023-12-07T11:23:06;16.35;;;9.73;;
33184;SDS011;19550;42.872;25.494;2023-12-07T11:25:33;16.85;;;11.75;;
33184;SDS011;19550;42.872;25.494;2023-12-07T11:28:05;9.80;;;6.70;;
33184;SDS011;19550;42.872;25.494;2023-12-07T11:30:34;13.63;;;9.85;;
33184;SDS011;19550;42.872;25.494;2023-12-07T11:33:02;9.05;;;5.53;;
33184;SDS011;19550;42.872;25.494;2023-12-07T11:35:30;8.88;;;5.72;;
33184;SDS011;19550;42.872;25.494;2023-12-07T11:38:01;11.38;;;7.18;;
33184;SDS011;19550;42.872;25.494;2023-12-07T11:40:31;9.25;;;6.35;;
33184;SDS011;19550;42.872;25.494;2023-12-07T11:43:02;6.70;;;5.30;;
33184;SDS011;19550;42.872;25.494;2023-12-07T11:45:37;15.73;;;11.45;;
33184;SDS011;19550;42.872;25.494;2023-12-07T11:48:08;11.93;;;8.57;;
33184;SDS011;19550;42.872;25.494;2023-12-07T11:50:36;13.45;;;8.63;;
33184;SDS011;19550;42.872;25.494;2023-12-07T11:53:03;54.80;;;39.75;;
33184;SDS011;19550;42.872;25.494;2023-12-07T11:55:32;19.55;;;13.35;;
33184;SDS011;19550;42.872;25.494;2023-12-07T11:57:59;31.20;;;24.08;;
33184;SDS011;19550;42.872;25.494;2023-12-07T12:00:27;18.05;;;13.82;;
33184;SDS011;19550;42.872;25.494;2023-12-07T12:02:56;10.50;;;6.05;;
33184;SDS011;19550;42.872;25.494;2023-12-07T12:05:23;9.63;;;6.75;;
33184;SDS011;19550;42.872;25.494;2023-12-07T12:07:50;8.75;;;5.68;;
33184;SDS011;19550;42.872;25.494;2023-12-07T12:10:17;15.02;;;10.27;;
33184;SDS011;19550;42.872;25.494;2023-12-07T12:12:44;9.85;;;6.00;;
33184;SDS011;19550;42.872;25.494;2023-12-07T12:15:11;7.95;;;5.43;;
33184;SDS011;19550;42.872;25.494;2023-12-07T12:17:39;9.45;;;6.82;;
33184;SDS011;19550;42.872;25.494;2023-12-07T12:20:08;8.60;;;5.95;;
33184;SDS011;19550;42.872;25.494;2023-12-07T12:22:36;9.77;;;6.82;;
33184;SDS011;19550;42.872;25.494;2023-12-07T12:25:03;9.93;;;5.78;;
33184;SDS011;19550;42.872;25.494;2023-12-07T12:27:32;7.28;;;5.53;;
33184;SDS011;19550;42.872;25.494;2023-12-07T12:29:59;8.52;;;5.68;;
33184;SDS011;19550;42.872;25.494;2023-12-07T12:32:27;9.32;;;6.30;;
33184;SDS011;19550;42.872;25.494;2023-12-07T12:34:56;8.75;;;6.15;;
33184;SDS011;19550;42.872;25.494;2023-12-07T12:37:24;10.27;;;6.30;;
33184;SDS011;19550;42.872;25.494;2023-12-07T12:39:51;18.85;;;14.07;;
33184;SDS011;19550;42.872;25.494;2023-12-07T12:42:18;15.07;;;11.05;;
33184;SDS011;19550;42.872;25.494;2023-12-07T12:44:45;11.23;;;8.10;;
33184;SDS011;19550;42.872;25.494;2023-12-07T12:47:14;11.73;;;7.47;;
33184;SDS011;19550;42.872;25.494;2023-12-07T12:49:41;9.68;;;7.13;;
33184;SDS011;19550;42.872;25.494;2023-12-07T12:52:11;17.55;;;9.80;;
33184;SDS011;19550;42.872;25.494;2023-12-07T12:54:42;14.68;;;9.65;;
33184;SDS011;19550;42.872;25.494;2023-12-07T12:57:09;14.40;;;8.10;;
33184;SDS011;19550;42.872;25.494;2023-12-07T12:59:36;9.98;;;6.53;;
33184;SDS011;19550;42.872;25.494;2023-12-07T13:02:03;7.47;;;5.22;;
33184;SDS011;19550;42.872;25.494;2023-12-07T13:04:30;9.57;;;6.15;;
33184;SDS011;19550;42.872;25.494;2023-12-07T13:06:58;7.75;;;5.03;;
33184;SDS011;19550;42.872;25.494;2023-12-07T13:09:26;7.32;;;5.03;;
33184;SDS011;19550;42.872;25.494;2023-12-07T13:11:54;9.02;;;5.72;;
33184;SDS011;19550;42.872;25.494;2023-12-07T13:14:20;12.35;;;9.13;;
33184;SDS011;19550;42.872;25.494;2023-12-07T13:16:47;10.77;;;8.60;;
33184;SDS011;19550;42.872;25.494;2023-12-07T13:19:14;8.95;;;6.90;;
33184;SDS011;19550;42.872;25.494;2023-12-07T13:21:41;7.93;;;6.00;;
33184;SDS011;19550;42.872;25.494;2023-12-07T13:24:08;8.75;;;5.78;;
33184;SDS011;19550;42.872;25.494;2023-12-07T13:26:39;62.80;;;31.27;;
33184;SDS011;19550;42.872;25.494;2023-12-07T13:29:05;70.40;;;35.50;;
33184;SDS011;19550;42.872;25.494;2023-12-07T13:31:33;42.20;;;23.85;;
33184;SDS011;19550;42.872;25.494;2023-12-07T13:34:00;11.23;;;7.47;;
33184;SDS011;19550;42.872;25.494;2023-12-07T13:36:27;6.07;;;4.40;;
33184;SDS011;19550;42.872;25.494;2023-12-07T13:38:55;8.02;;;4.50;;
33184;SDS011;19550;42.872;25.494;2023-12-07T13:41:22;7.03;;;5.45;;
33184;SDS011;19550;42.872;25.494;2023-12-07T13:43:51;10.30;;;6.68;;
33184;SDS011;19550;42.872;25.494;2023-12-07T13:46:17;6.25;;;4.57;;
33184;SDS011;19550;42.872;25.494;2023-12-07T13:48:44;5.80;;;4.40;;
33184;SDS011;19550;42.872;25.494;2023-12-07T13:51:11;6.05;;;4.10;;
33184;SDS011;19550;42.872;25.494;2023-12-07T13:53:39;7.13;;;4.20;;
33184;SDS011;19550;42.872;25.494;2023-12-07T13:56:06;18.40;;;13.45;;
33184;SDS011;19550;42.872;25.494;2023-12-07T13:58:35;12.13;;;7.80;;
33184;SDS011;19550;42.872;25.494;2023-12-07T14:01:03;9.52;;;7.10;;
33184;SDS011;19550;42.872;25.494;2023-12-07T14:03:30;25.45;;;18.92;;
33184;SDS011;19550;42.872;25.494;2023-12-07T14:05:57;27.50;;;17.25;;
33184;SDS011;19550;42.872;25.494;2023-12-07T14:08:24;16.00;;;10.23;;
33184;SDS011;19550;42.872;25.494;2023-12-07T14:10:51;20.67;;;12.82;;
33184;SDS011;19550;42.872;25.494;2023-12-07T14:13:17;31.08;;;21.10;;
33184;SDS011;19550;42.872;25.494;2023-12-07T14:15:44;14.35;;;9.75;;
33184;SDS011;19550;42.872;25.494;2023-12-07T14:18:12;8.73;;;6.10;;
33184;SDS011;19550;42.872;25.494;2023-12-07T14:20:40;6.03;;;4.28;;
33184;SDS011;19550;42.872;25.494;2023-12-07T14:23:07;11.07;;;7.72;;
33184;SDS011;19550;42.872;25.494;2023-12-07T14:25:34;105.93;;;56.90;;